Bow Faith — LAZM4 — position and weather

sailwx.info

Track history (hours):
 
Tides and Currents Weather Stations Pressure Air Temp Water Temp Dewpoint Dewpoint Depression Visibility Wind Speed Wind Dir Waves Ship Positions

Bow Faith

Last reported at 2017-Dec-08 20:50 UTC. Time now 2017-Dec-11 01:55 UTC.
Position N 29°21' W 094°45'.

Length 184 m; draft 7.2 m.

Type: Ship (hazmat cat B). MMSI: 259773000.

Date/timePositionNaut miles runAvg speedWind from/ knotsBaromVisibWave heightAir tempDewpointWater temp
2017-Dec-08 20:50N 29°21' W 094°45'412.9
2017-Dec-08 20:29N 29°23' W 094°49'713.8
2017-Dec-08 20:00N 29°29' W 094°52'612.9
2017-Dec-08 19:30N 29°35' W 094°56'4 8.9
2017-Dec-08 19:00N 29°37' W 095°00'1 1.5
2017-Dec-08 18:28N 29°37' W 095°01'0 0.0
2017-Dec-08 17:58N 29°37' W 095°01'0 0.0
2017-Dec-08 17:28N 29°37' W 095°01'0 0.0
2017-Dec-08 16:52N 29°37' W 095°01'0 0.0
2017-Dec-08 16:28N 29°37' W 095°01'0 0.0
2017-Dec-08 15:58N 29°37' W 095°01'0 0.0
2017-Dec-08 15:28N 29°37' W 095°01'0 0.0
2017-Dec-08 14:58N 29°37' W 095°01'0 0.0
2017-Dec-08 14:28N 29°37' W 095°01'0 0.0
2017-Dec-08 13:58N 29°37' W 095°01'0 0.0
2017-Dec-08 13:28N 29°37' W 095°01'0 0.0
2017-Dec-08 12:58N 29°37' W 095°01'0 0.0
2017-Dec-08 12:28N 29°37' W 095°01'0 0.0
2017-Dec-08 11:58N 29°37' W 095°01'0 0.0
2017-Dec-08 11:28N 29°37' W 095°01'0 0.0
2017-Dec-08 10:58N 29°37' W 095°01'0 0.0
2017-Dec-08 10:28N 29°37' W 095°01'0 0.0
2017-Dec-08 09:58N 29°37' W 095°01'0 0.0
2017-Dec-08 09:28N 29°37' W 095°01'0 0.0
2017-Dec-08 08:58N 29°37' W 095°01'0 0.0
2017-Dec-08 08:28N 29°37' W 095°01'0 0.0
2017-Dec-08 07:58N 29°37' W 095°01'0 0.0
2017-Dec-08 07:28N 29°37' W 095°01'0 0.0
2017-Dec-08 06:58N 29°37' W 095°01'0 0.0
2017-Dec-08 06:28N 29°37' W 095°01'0 0.0
2017-Dec-08 05:58N 29°37' W 095°01'0 0.0
2017-Dec-08 05:28N 29°37' W 095°01'0 0.0
2017-Dec-08 04:55N 29°37' W 095°01'0 0.0
2017-Dec-08 04:28N 29°37' W 095°01'0 0.0
2017-Dec-08 03:58N 29°37' W 095°01'0 0.0
2017-Dec-08 03:28N 29°37' W 095°01'0 0.0
2017-Dec-08 02:55N 29°37' W 095°01'0 0.0
2017-Dec-08 02:28N 29°37' W 095°01'0 0.0
2017-Dec-08 01:58N 29°37' W 095°01'0 0.2
2017-Dec-08 01:30N 29°37' W 095°01'1 2.7
2017-Dec-08 01:00N 29°37' W 094°60'3 6.6
2017-Dec-08 00:30N 29°35' W 094°56'611.9
2017-Dec-08 00:00N 29°30' W 094°53'612.8
2017-Dec-07 23:30N 29°25' W 094°49'3 0.2
2017-Dec-07 07:12N 29°22' W 094°48'212.2
2017-Dec-07 07:00N 29°24' W 094°49'611.9
2017-Dec-07 06:30N 29°29' W 094°52'611.9
2017-Dec-07 06:00N 29°34' W 094°55'612.1
2017-Dec-07 05:30N 29°39' W 094°58'5 9.1
2017-Dec-07 05:00N 29°43' W 095°01'4 7.8
2017-Dec-07 04:30N 29°46' W 095°05'  
2017-Dec-03 20:01N 29°45' W 095°06'0 0.0
2017-Dec-03 20:00N 29°45' W 095°06'1 2.7
2017-Dec-03 19:30N 29°46' W 095°04'4 7.4
2017-Dec-03 19:00N 29°43' W 095°01'4 7.3
2017-Dec-03 18:30N 29°40' W 094°59'611.5
2017-Dec-03 18:00N 29°35' W 094°56'611.8
2017-Dec-03 17:30N 29°30' W 094°52'611.2
2017-Dec-03 17:00N 29°25' W 094°49'5 9.7
2017-Dec-03 16:26N 29°21' W 094°46'5 9.9
2017-Dec-03 15:56N 29°20' W 094°40'8 2.3
2017-Dec-03 12:28N 29°16' W 094°32'1 1.8
2017-Dec-03 12:00N 29°16' W 094°31'0 0.1
2017-Dec-03 10:50N 29°16' W 094°31'0 0.0
2017-Dec-03 10:29N 29°16' W 094°31'0 0.0
2017-Dec-03 09:53N 29°16' W 094°31'0 0.0
2017-Dec-03 09:29N 29°16' W 094°31'0 0.0
2017-Dec-03 08:59N 29°16' W 094°31'0 0.0
2017-Dec-03 07:59N 29°16' W 094°31'0 0.0
2017-Dec-03 05:17N 29°16' W 094°31'0 0.0
2017-Dec-03 04:56N 29°16' W 094°31'0 0.0
2017-Dec-03 04:30N 29°16' W 094°31'0 0.1
2017-Dec-03 03:59N 29°16' W 094°31'4 7.4
2017-Dec-03 03:30N 29°13' W 094°28'2514.3
2017-Dec-03 01:46N 28°59' W 094°05'415.2
2017-Dec-03 01:31N 28°57' W 094°01'1015.2
2017-Dec-03 00:51N 28°51' W 093°52'715.1
2017-Dec-03 00:23N 28°47' W 093°46'1515.2
2017-Dec-02 23:24N 28°38' W 093°32'615.1
2017-Dec-02 23:00N 28°35' W 093°26'187 4.3
2017-Dec-01 03:34N 29°55' W 090°12'112.4
2017-Dec-01 03:30N 29°56' W 090°13'6 8.3
2017-Dec-01 02:46N 29°56' W 090°20'311.2
2017-Dec-01 02:29N 29°57' W 090°24'  
Track history (hours):
 
Tides and Currents Weather Stations Pressure Air Temp Water Temp Dewpoint Dewpoint Depression Visibility Wind Speed Wind Dir Waves Ship Positions

Bow Faith

Last reported at 2017-Dec-08 20:50 UTC. Time now 2017-Dec-11 01:55 UTC.
Position N 29°21' W 094°45'.

Length 184 m; draft 7.2 m.

Type: Ship (hazmat cat B). MMSI: 259773000.

Date/timePositionNaut miles runAvg speedWind from/ knotsBaromVisibWave heightAir tempDewpointWater temp
2017-Dec-08 20:50N 29°21' W 094°45'412.9
2017-Dec-08 20:29N 29°23' W 094°49'713.8
2017-Dec-08 20:00N 29°29' W 094°52'612.9
2017-Dec-08 19:30N 29°35' W 094°56'4 8.9
2017-Dec-08 19:00N 29°37' W 095°00'1 1.5
2017-Dec-08 18:28N 29°37' W 095°01'0 0.0
2017-Dec-08 17:58N 29°37' W 095°01'0 0.0
2017-Dec-08 17:28N 29°37' W 095°01'0 0.0
2017-Dec-08 16:52N 29°37' W 095°01'0 0.0
2017-Dec-08 16:28N 29°37' W 095°01'0 0.0
2017-Dec-08 15:58N 29°37' W 095°01'0 0.0
2017-Dec-08 15:28N 29°37' W 095°01'0 0.0
2017-Dec-08 14:58N 29°37' W 095°01'0 0.0
2017-Dec-08 14:28N 29°37' W 095°01'0 0.0
2017-Dec-08 13:58N 29°37' W 095°01'0 0.0
2017-Dec-08 13:28N 29°37' W 095°01'0 0.0
2017-Dec-08 12:58N 29°37' W 095°01'0 0.0
2017-Dec-08 12:28N 29°37' W 095°01'0 0.0
2017-Dec-08 11:58N 29°37' W 095°01'0 0.0
2017-Dec-08 11:28N 29°37' W 095°01'0 0.0
2017-Dec-08 10:58N 29°37' W 095°01'0 0.0
2017-Dec-08 10:28N 29°37' W 095°01'0 0.0
2017-Dec-08 09:58N 29°37' W 095°01'0 0.0
2017-Dec-08 09:28N 29°37' W 095°01'0 0.0
2017-Dec-08 08:58N 29°37' W 095°01'0 0.0
2017-Dec-08 08:28N 29°37' W 095°01'0 0.0
2017-Dec-08 07:58N 29°37' W 095°01'0 0.0
2017-Dec-08 07:28N 29°37' W 095°01'0 0.0
2017-Dec-08 06:58N 29°37' W 095°01'0 0.0
2017-Dec-08 06:28N 29°37' W 095°01'0 0.0
2017-Dec-08 05:58N 29°37' W 095°01'0 0.0
2017-Dec-08 05:28N 29°37' W 095°01'0 0.0
2017-Dec-08 04:55N 29°37' W 095°01'0 0.0
2017-Dec-08 04:28N 29°37' W 095°01'0 0.0
2017-Dec-08 03:58N 29°37' W 095°01'0 0.0
2017-Dec-08 03:28N 29°37' W 095°01'0 0.0
2017-Dec-08 02:55N 29°37' W 095°01'0 0.0
2017-Dec-08 02:28N 29°37' W 095°01'0 0.0
2017-Dec-08 01:58N 29°37' W 095°01'0 0.2
2017-Dec-08 01:30N 29°37' W 095°01'1 2.7
2017-Dec-08 01:00N 29°37' W 094°60'3 6.6
2017-Dec-08 00:30N 29°35' W 094°56'611.9
2017-Dec-08 00:00N 29°30' W 094°53'612.8
2017-Dec-07 23:30N 29°25' W 094°49'3 0.2
2017-Dec-07 07:12N 29°22' W 094°48'212.2
2017-Dec-07 07:00N 29°24' W 094°49'611.9
2017-Dec-07 06:30N 29°29' W 094°52'611.9
2017-Dec-07 06:00N 29°34' W 094°55'612.1
2017-Dec-07 05:30N 29°39' W 094°58'5 9.1
2017-Dec-07 05:00N 29°43' W 095°01'4 7.8
2017-Dec-07 04:30N 29°46' W 095°05'  
2017-Dec-03 20:01N 29°45' W 095°06'0 0.0
2017-Dec-03 20:00N 29°45' W 095°06'1 2.7
2017-Dec-03 19:30N 29°46' W 095°04'4 7.4
2017-Dec-03 19:00N 29°43' W 095°01'4 7.3
2017-Dec-03 18:30N 29°40' W 094°59'611.5
2017-Dec-03 18:00N 29°35' W 094°56'611.8
2017-Dec-03 17:30N 29°30' W 094°52'611.2
2017-Dec-03 17:00N 29°25' W 094°49'5 9.7
2017-Dec-03 16:26N 29°21' W 094°46'5 9.9
2017-Dec-03 15:56N 29°20' W 094°40'8 2.3
2017-Dec-03 12:28N 29°16' W 094°32'1 1.8
2017-Dec-03 12:00N 29°16' W 094°31'0 0.1
2017-Dec-03 10:50N 29°16' W 094°31'0 0.0
2017-Dec-03 10:29N 29°16' W 094°31'0 0.0
2017-Dec-03 09:53N 29°16' W 094°31'0 0.0
2017-Dec-03 09:29N 29°16' W 094°31'0 0.0
2017-Dec-03 08:59N 29°16' W 094°31'0 0.0
2017-Dec-03 07:59N 29°16' W 094°31'0 0.0
2017-Dec-03 05:17N 29°16' W 094°31'0 0.0
2017-Dec-03 04:56N 29°16' W 094°31'0 0.0
2017-Dec-03 04:30N 29°16' W 094°31'0 0.1
2017-Dec-03 03:59N 29°16' W 094°31'4 7.4
2017-Dec-03 03:30N 29°13' W 094°28'2514.3
2017-Dec-03 01:46N 28°59' W 094°05'415.2
2017-Dec-03 01:31N 28°57' W 094°01'1015.2
2017-Dec-03 00:51N 28°51' W 093°52'715.1
2017-Dec-03 00:23N 28°47' W 093°46'1515.2
2017-Dec-02 23:24N 28°38' W 093°32'615.1
2017-Dec-02 23:00N 28°35' W 093°26'187 4.3
2017-Dec-01 03:34N 29°55' W 090°12'112.4
2017-Dec-01 03:30N 29°56' W 090°13'6 8.3
2017-Dec-01 02:46N 29°56' W 090°20'311.2
2017-Dec-01 02:29N 29°57' W 090°24'  

Dump ship's entire track history